PWSweather.com
Personal Weather Stations
Station Observations
GEELONGWX1
Bell Post Hill, GeelongAU

Bell Post HillGeelongAU

Lat: -38.101, Lon: 144.326

Elevation: 204

Station Type: Davis Vantage Pro2

http://www.geelongweather.com

High Low Average
Temperature 72.5°F22.5°F 55.9°F13.3°F 63.1°F17.3°F
Dew Point 56.5°F13.6°F 47.4°F8.6°F 51.5°F10.8°F
Winds 9.2 mph E14.8 mph E Calm Calm 0.8 mph 1.3 mph
Wind Gusts 13.8 mph22.2 mph -- 2.1 mph3.4 mph
Humidity 87% 48% 67%
Pressure 30.37 in1028.40 in 30.27 in1025.10 in -
Precipitation 0.01 in0.30 in - -
Hour Temp Dew Point Humidity Winds Wind Gusts Pressure Precip Precip Rate Daily Precip Total
12:00 AM 61.4°F16.3°C 56.5°F13.6°C 84% Calm Calm -- 30.28 in1025.4 mb - 0.00 in0.0 mm 0.00 in0.0 mm
12:10 AM 61.2°F16.2°C 56.4°F13.6°C 84% Calm Calm -- 30.28 in1025.4 mb - 0.00 in0.0 mm 0.00 in0.0 mm
12:20 AM 61.1°F16.2°C 56.2°F13.4°C 84% Calm Calm -- 30.29 in1025.7 mb - 0.00 in0.0 mm 0.00 in0.0 mm
12:30 AM 60.9°F16.1°C 56.1°F13.4°C 84% Calm Calm 8.1 mph13.0 kmh 30.29 in1025.7 mb - 0.00 in0.0 mm 0.00 in0.0 mm
12:40 AM 60.9°F16.1°C 56.3°F13.5°C 85% Calm Calm -- 30.28 in1025.4 mb - 0.00 in0.0 mm 0.00 in0.0 mm
12:50 AM 60.7°F15.9°C 55.9°F13.3°C 84% Calm Calm -- 30.28 in1025.4 mb - 0.00 in0.0 mm 0.00 in0.0 mm
01:00 AM 60.7°F15.9°C 55.8°F13.2°C 84% Calm Calm -- 30.28 in1025.4 mb - 0.00 in0.0 mm 0.00 in0.0 mm
01:10 AM 60.6°F15.9°C 56.1°F13.4°C 85% Calm Calm -- 30.28 in1025.4 mb - 0.00 in0.0 mm 0.00 in0.0 mm
01:20 AM 60.6°F15.9°C 56.1°F13.4°C 85% Calm Calm -- 30.29 in1025.7 mb - 0.00 in0.0 mm 0.00 in0.0 mm
01:30 AM 60.6°F15.9°C 56.4°F13.6°C 86% Calm Calm -- 30.29 in1025.7 mb - 0.00 in0.0 mm 0.00 in0.0 mm
01:40 AM 60.5°F15.8°C 56.3°F13.5°C 86% 2.3 mph SE3.7 kmh SE 5.8 mph9.3 kmh 30.28 in1025.4 mb - 0.00 in0.0 mm 0.00 in0.0 mm
01:50 AM 60.3°F15.7°C 56.1°F13.4°C 86% Calm Calm 3.5 mph5.6 kmh 30.28 in1025.4 mb - 0.00 in0.0 mm 0.00 in0.0 mm
02:00 AM 60.1°F15.6°C 55.9°F13.3°C 86% Calm Calm -- 30.28 in1025.4 mb - 0.01 in0.3 mm 0.01 in0.3 mm
02:10 AM 60.0°F15.6°C 55.8°F13.2°C 86% 1.2 mph SSE1.9 kmh SSE 3.5 mph5.6 kmh 30.28 in1025.4 mb - 0.00 in0.0 mm 0.01 in0.3 mm
02:20 AM 59.7°F15.4°C 55.5°F13.1°C 86% Calm Calm -- 30.27 in1025.1 mb - 0.00 in0.0 mm 0.01 in0.3 mm
02:30 AM 59.5°F15.3°C 55.3°F12.9°C 86% Calm Calm -- 30.27 in1025.1 mb - 0.00 in0.0 mm 0.01 in0.3 mm
02:40 AM 59.3°F15.2°C 55.1°F12.8°C 86% Calm Calm -- 30.27 in1025.1 mb - 0.00 in0.0 mm 0.01 in0.3 mm
02:50 AM 59.1°F15.1°C 54.9°F12.7°C 86% Calm Calm -- 30.27 in1025.1 mb - 0.00 in0.0 mm 0.01 in0.3 mm
03:00 AM 59.0°F15.0°C 54.8°F12.7°C 86% Calm Calm -- 30.27 in1025.1 mb - 0.00 in0.0 mm 0.01 in0.3 mm
03:10 AM 58.8°F14.9°C 54.6°F12.6°C 86% Calm Calm -- 30.27 in1025.1 mb - 0.00 in0.0 mm 0.01 in0.3 mm
03:20 AM 58.8°F14.9°C 54.6°F12.6°C 86% Calm Calm -- 30.27 in1025.1 mb - 0.00 in0.0 mm 0.01 in0.3 mm
03:30 AM 58.7°F14.8°C 54.8°F12.7°C 87% Calm Calm -- 30.27 in1025.1 mb - 0.00 in0.0 mm 0.01 in0.3 mm
03:40 AM 58.6°F14.8°C 54.7°F12.6°C 87% Calm Calm -- 30.27 in1025.1 mb - 0.00 in0.0 mm 0.01 in0.3 mm
03:50 AM 58.6°F14.8°C 54.8°F12.7°C 87% Calm Calm -- 30.27 in1025.1 mb - 0.00 in0.0 mm 0.01 in0.3 mm
04:00 AM 58.6°F14.8°C 54.7°F12.6°C 87% 1.2 mph S1.9 kmh S 5.8 mph9.3 kmh 30.27 in1025.1 mb - 0.00 in0.0 mm 0.01 in0.3 mm
04:10 AM 58.5°F14.7°C 54.6°F12.6°C 87% Calm Calm -- 30.27 in1025.1 mb - 0.00 in0.0 mm 0.01 in0.3 mm
04:20 AM 58.4°F14.7°C 54.5°F12.5°C 87% Calm Calm -- 30.27 in1025.1 mb - 0.00 in0.0 mm 0.01 in0.3 mm
04:30 AM 58.3°F14.6°C 54.4°F12.4°C 87% Calm Calm -- 30.28 in1025.4 mb - 0.00 in0.0 mm 0.01 in0.3 mm
04:40 AM 58.2°F14.6°C 54.3°F12.4°C 87% Calm Calm -- 30.28 in1025.4 mb - 0.00 in0.0 mm 0.01 in0.3 mm
04:50 AM 58.1°F14.5°C 53.9°F12.2°C 86% Calm Calm -- 30.28 in1025.4 mb - 0.00 in0.0 mm 0.01 in0.3 mm
05:00 AM 58.0°F14.4°C 53.8°F12.1°C 86% Calm Calm -- 30.28 in1025.4 mb - 0.00 in0.0 mm 0.01 in0.3 mm
05:10 AM 57.8°F14.3°C 53.7°F12.1°C 86% Calm Calm -- 30.29 in1025.7 mb - 0.00 in0.0 mm 0.01 in0.3 mm
05:20 AM 57.7°F14.3°C 53.5°F11.9°C 86% Calm Calm -- 30.29 in1025.7 mb - 0.00 in0.0 mm 0.01 in0.3 mm
05:30 AM 57.6°F14.2°C 53.4°F11.9°C 86% Calm Calm -- 30.29 in1025.7 mb - 0.00 in0.0 mm 0.01 in0.3 mm
05:40 AM 57.5°F14.2°C 53.4°F11.9°C 86% Calm Calm -- 30.29 in1025.7 mb - 0.00 in0.0 mm 0.01 in0.3 mm
05:50 AM 57.6°F14.2°C 53.4°F11.9°C 86% Calm Calm -- 30.30 in1026.1 mb - 0.00 in0.0 mm 0.01 in0.3 mm
06:00 AM 57.7°F14.3°C 53.5°F11.9°C 86% Calm Calm -- 30.30 in1026.1 mb - 0.00 in0.0 mm 0.01 in0.3 mm
06:10 AM 57.6°F14.2°C 53.4°F11.9°C 86% Calm Calm 3.5 mph5.6 kmh 30.30 in1026.1 mb - 0.00 in0.0 mm 0.01 in0.3 mm
06:20 AM 57.4°F14.1°C 53.2°F11.8°C 86% 2.3 mph S3.7 kmh S 3.5 mph5.6 kmh 30.30 in1026.1 mb - 0.00 in0.0 mm 0.01 in0.3 mm
06:30 AM 57.3°F14.1°C 52.8°F11.6°C 85% Calm Calm -- 30.31 in1026.4 mb - 0.00 in0.0 mm 0.01 in0.3 mm
06:40 AM 57.2°F14.0°C 52.8°F11.6°C 85% Calm Calm -- 30.31 in1026.4 mb - 0.00 in0.0 mm 0.01 in0.3 mm
06:50 AM 57.1°F13.9°C 52.0°F11.1°C 83% 3.5 mph SSW5.6 kmh SSW 5.8 mph9.3 kmh 30.31 in1026.4 mb - 0.00 in0.0 mm 0.01 in0.3 mm
07:00 AM 57.2°F14.0°C 52.1°F11.2°C 83% 1.2 mph SSE1.9 kmh SSE 4.6 mph7.4 kmh 30.31 in1026.4 mb - 0.00 in0.0 mm 0.01 in0.3 mm
07:10 AM 57.3°F14.1°C 51.9°F11.1°C 82% Calm Calm -- 30.32 in1026.8 mb - 0.00 in0.0 mm 0.01 in0.3 mm
07:20 AM 57.7°F14.3°C 51.5°F10.8°C 80% 2.3 mph SE3.7 kmh SE 6.9 mph11.1 kmh 30.32 in1026.8 mb - 0.00 in0.0 mm 0.01 in0.3 mm
07:30 AM 58.2°F14.6°C 51.7°F10.9°C 79% Calm Calm -- 30.33 in1027.1 mb - 0.00 in0.0 mm 0.01 in0.3 mm
07:40 AM 59.0°F15.0°C 51.4°F10.8°C 76% Calm Calm -- 30.33 in1027.1 mb - 0.00 in0.0 mm 0.01 in0.3 mm
07:50 AM 60.0°F15.6°C 52.4°F11.3°C 76% Calm Calm -- 30.33 in1027.1 mb - 0.00 in0.0 mm 0.01 in0.3 mm
08:00 AM 61.1°F16.2°C 52.0°F11.1°C 72% 3.5 mph SE5.6 kmh SE 6.9 mph11.1 kmh 30.33 in1027.1 mb - 0.00 in0.0 mm 0.01 in0.3 mm
08:10 AM 62.4°F16.9°C 51.7°F10.9°C 68% Calm Calm -- 30.34 in1027.4 mb - 0.00 in0.0 mm 0.01 in0.3 mm
08:20 AM 63.1°F17.3°C 51.1°F10.6°C 65% 3.5 mph SE5.6 kmh SE 5.8 mph9.3 kmh 30.34 in1027.4 mb - 0.00 in0.0 mm 0.01 in0.3 mm
08:30 AM 63.1°F17.3°C 49.9°F9.9°C 62% 3.5 mph SSE5.6 kmh SSE 4.6 mph7.4 kmh 30.34 in1027.4 mb - 0.00 in0.0 mm 0.01 in0.3 mm
08:40 AM 63.3°F17.4°C 50.1°F10.1°C 62% 2.3 mph S3.7 kmh S 4.6 mph7.4 kmh 30.35 in1027.8 mb - 0.00 in0.0 mm 0.01 in0.3 mm
08:50 AM 63.6°F17.6°C 49.9°F9.9°C 61% Calm Calm -- 30.35 in1027.8 mb - 0.00 in0.0 mm 0.01 in0.3 mm
09:00 AM 64.1°F17.8°C 50.0°F10.0°C 60% Calm Calm -- 30.35 in1027.8 mb - 0.00 in0.0 mm 0.01 in0.3 mm
09:10 AM 64.5°F18.1°C 49.8°F9.9°C 59% Calm Calm -- 30.36 in1028.1 mb - 0.00 in0.0 mm 0.01 in0.3 mm
09:20 AM 65.1°F18.4°C 49.5°F9.7°C 57% Calm Calm -- 30.35 in1027.8 mb - 0.00 in0.0 mm 0.01 in0.3 mm
09:30 AM 66.0°F18.9°C 49.4°F9.7°C 55% 1.2 mph ESE1.9 kmh ESE 4.6 mph7.4 kmh 30.35 in1027.8 mb - 0.00 in0.0 mm 0.01 in0.3 mm
09:40 AM 66.6°F19.2°C 50.0°F10.0°C 55% Calm Calm -- 30.35 in1027.8 mb - 0.00 in0.0 mm 0.01 in0.3 mm
09:50 AM 67.1°F19.5°C 49.9°F9.9°C 54% Calm Calm -- 30.36 in1028.1 mb - 0.00 in0.0 mm 0.01 in0.3 mm
10:00 AM 67.4°F19.7°C 49.7°F9.8°C 53% Calm Calm -- 30.36 in1028.1 mb - 0.00 in0.0 mm 0.01 in0.3 mm
10:10 AM 67.8°F19.9°C 49.5°F9.7°C 52% Calm Calm -- 30.36 in1028.1 mb - 0.00 in0.0 mm 0.01 in0.3 mm
10:20 AM 68.2°F20.1°C 49.9°F9.9°C 52% Calm Calm -- 30.36 in1028.1 mb - 0.00 in0.0 mm 0.01 in0.3 mm
10:30 AM 68.5°F20.3°C 50.2°F10.1°C 52% Calm Calm -- 30.36 in1028.1 mb - 0.00 in0.0 mm 0.01 in0.3 mm
10:40 AM 68.4°F20.2°C 50.1°F10.1°C 52% Calm Calm -- 30.36 in1028.1 mb - 0.00 in0.0 mm 0.01 in0.3 mm
10:50 AM 68.3°F20.2°C 49.9°F9.9°C 52% Calm Calm -- 30.36 in1028.1 mb - 0.00 in0.0 mm 0.01 in0.3 mm
11:00 AM 68.2°F20.1°C 50.4°F10.2°C 53% 1.2 mph ESE1.9 kmh ESE 2.3 mph3.7 kmh 30.36 in1028.1 mb - 0.00 in0.0 mm 0.01 in0.3 mm
11:10 AM 68.0°F20.0°C 50.3°F10.2°C 53% 1.2 mph ESE1.9 kmh ESE -- 30.36 in1028.1 mb - 0.00 in0.0 mm 0.01 in0.3 mm
11:20 AM 67.6°F19.8°C 50.3°F10.2°C 54% Calm Calm -- 30.36 in1028.1 mb - 0.00 in0.0 mm 0.01 in0.3 mm
11:30 AM 67.4°F19.7°C 50.2°F10.1°C 54% 1.2 mph E1.9 kmh E 9.2 mph14.8 kmh 30.36 in1028.1 mb - 0.00 in0.0 mm 0.01 in0.3 mm
11:40 AM 67.5°F19.7°C 49.3°F9.6°C 52% 1.2 mph ESE1.9 kmh ESE -- 30.36 in1028.1 mb - 0.00 in0.0 mm 0.01 in0.3 mm
11:50 AM 67.8°F19.9°C 50.0°F10.0°C 53% Calm Calm -- 30.35 in1027.8 mb - 0.00 in0.0 mm 0.01 in0.3 mm
12:00 PM 68.1°F20.1°C 50.3°F10.2°C 53% 2.3 mph SSE3.7 kmh SSE 6.9 mph11.1 kmh 30.35 in1027.8 mb - 0.00 in0.0 mm 0.01 in0.3 mm
12:10 PM 68.7°F20.4°C 50.4°F10.2°C 52% Calm Calm -- 30.35 in1027.8 mb - 0.00 in0.0 mm 0.01 in0.3 mm
12:20 PM 68.9°F20.5°C 50.0°F10.0°C 51% Calm Calm -- 30.35 in1027.8 mb - 0.00 in0.0 mm 0.01 in0.3 mm
12:30 PM 69.2°F20.7°C 49.8°F9.9°C 50% Calm Calm -- 30.35 in1027.8 mb - 0.00 in0.0 mm 0.01 in0.3 mm
12:40 PM 69.7°F20.9°C 49.7°F9.8°C 49% 1.2 mph SE1.9 kmh SE -- 30.35 in1027.8 mb - 0.00 in0.0 mm 0.01 in0.3 mm
12:50 PM 70.1°F21.2°C 50.6°F10.3°C 50% Calm Calm -- 30.35 in1027.8 mb - 0.00 in0.0 mm 0.01 in0.3 mm
01:00 PM 70.5°F21.4°C 50.4°F10.2°C 49% Calm Calm -- 30.35 in1027.8 mb - 0.00 in0.0 mm 0.01 in0.3 mm
01:10 PM 70.8°F21.6°C 50.1°F10.1°C 48% 9.2 mph E14.8 kmh E 13.8 mph22.2 kmh 30.35 in1027.8 mb - 0.00 in0.0 mm 0.01 in0.3 mm
01:20 PM 70.9°F21.6°C 50.8°F10.4°C 49% 1.2 mph ESE1.9 kmh ESE 8.1 mph13.0 kmh 30.35 in1027.8 mb - 0.00 in0.0 mm 0.01 in0.3 mm
01:30 PM 71.1°F21.7°C 50.4°F10.2°C 48% 5.8 mph E9.3 kmh E 10.4 mph16.7 kmh 30.34 in1027.4 mb - 0.00 in0.0 mm 0.01 in0.3 mm
01:40 PM 71.2°F21.8°C 51.1°F10.6°C 49% Calm Calm 3.5 mph5.6 kmh 30.34 in1027.4 mb - 0.00 in0.0 mm 0.01 in0.3 mm
01:50 PM 71.6°F22.0°C 51.4°F10.8°C 49% 2.3 mph E3.7 kmh E 10.4 mph16.7 kmh 30.34 in1027.4 mb - 0.00 in0.0 mm 0.01 in0.3 mm
02:00 PM 71.7°F22.1°C 52.1°F11.2°C 50% 1.2 mph ESE1.9 kmh ESE -- 30.34 in1027.4 mb - 0.00 in0.0 mm 0.01 in0.3 mm
02:10 PM 72.5°F22.5°C 52.2°F11.2°C 49% 1.2 mph E1.9 kmh E 9.2 mph14.8 kmh 30.34 in1027.4 mb - 0.00 in0.0 mm 0.01 in0.3 mm
02:20 PM 72.1°F22.3°C 51.9°F11.1°C 49% Calm Calm -- 30.34 in1027.4 mb - 0.00 in0.0 mm 0.01 in0.3 mm
02:30 PM 71.6°F22.0°C 52.5°F11.4°C 51% 3.5 mph E5.6 kmh E 4.6 mph7.4 kmh 30.33 in1027.1 mb - 0.00 in0.0 mm 0.01 in0.3 mm
02:40 PM 71.4°F21.9°C 52.3°F11.3°C 51% 3.5 mph E5.6 kmh E 1.2 mph1.9 kmh 30.33 in1027.1 mb - 0.00 in0.0 mm 0.01 in0.3 mm
02:50 PM 70.9°F21.6°C 51.9°F11.1°C 51% 3.5 mph ENE5.6 kmh ENE -- 30.33 in1027.1 mb - 0.00 in0.0 mm 0.01 in0.3 mm
03:00 PM 70.5°F21.4°C 52.0°F11.1°C 52% Calm Calm 10.4 mph16.7 kmh 30.33 in1027.1 mb - 0.00 in0.0 mm 0.01 in0.3 mm
03:10 PM 70.0°F21.1°C 50.5°F10.3°C 50% 3.5 mph E5.6 kmh E 9.2 mph14.8 kmh 30.33 in1027.1 mb - 0.00 in0.0 mm 0.01 in0.3 mm
03:20 PM 69.6°F20.9°C 50.1°F10.1°C 50% 2.3 mph ESE3.7 kmh ESE 5.8 mph9.3 kmh 30.33 in1027.1 mb - 0.00 in0.0 mm 0.01 in0.3 mm
03:30 PM 69.3°F20.7°C 49.9°F9.9°C 50% 4.6 mph ESE7.4 kmh ESE 9.2 mph14.8 kmh 30.33 in1027.1 mb - 0.00 in0.0 mm 0.01 in0.3 mm
03:40 PM 69.1°F20.6°C 50.2°F10.1°C 51% 2.3 mph E3.7 kmh E 8.1 mph13.0 kmh 30.33 in1027.1 mb - 0.00 in0.0 mm 0.01 in0.3 mm
03:50 PM 68.8°F20.4°C 51.0°F10.6°C 53% 3.5 mph E5.6 kmh E 5.8 mph9.3 kmh 30.33 in1027.1 mb - 0.00 in0.0 mm 0.01 in0.3 mm
04:00 PM 68.7°F20.4°C 51.4°F10.8°C 54% 1.2 mph E1.9 kmh E 6.9 mph11.1 kmh 30.33 in1027.1 mb - 0.00 in0.0 mm 0.01 in0.3 mm
04:10 PM 68.4°F20.2°C 50.1°F10.1°C 52% 3.5 mph E5.6 kmh E 8.1 mph13.0 kmh 30.33 in1027.1 mb - 0.00 in0.0 mm 0.01 in0.3 mm
04:20 PM 68.2°F20.1°C 49.9°F9.9°C 52% 5.8 mph E9.3 kmh E 11.5 mph18.5 kmh 30.33 in1027.1 mb - 0.00 in0.0 mm 0.01 in0.3 mm
04:30 PM 68.1°F20.1°C 49.3°F9.6°C 51% 4.6 mph E7.4 kmh E 6.9 mph11.1 kmh 30.33 in1027.1 mb - 0.00 in0.0 mm 0.01 in0.3 mm
04:40 PM 67.8°F19.9°C 49.0°F9.4°C 51% 1.2 mph ESE1.9 kmh ESE 3.5 mph5.6 kmh 30.33 in1027.1 mb - 0.00 in0.0 mm 0.01 in0.3 mm
04:50 PM 67.5°F19.7°C 49.7°F9.8°C 53% 3.5 mph SE5.6 kmh SE 6.9 mph11.1 kmh 30.33 in1027.1 mb - 0.00 in0.0 mm 0.01 in0.3 mm
05:00 PM 67.1°F19.5°C 50.4°F10.2°C 55% 2.3 mph ESE3.7 kmh ESE 6.9 mph11.1 kmh 30.34 in1027.4 mb - 0.00 in0.0 mm 0.01 in0.3 mm
05:10 PM 66.8°F19.3°C 49.6°F9.8°C 54% Calm Calm -- 30.34 in1027.4 mb - 0.00 in0.0 mm 0.01 in0.3 mm
05:20 PM 66.5°F19.2°C 49.8°F9.9°C 55% Calm Calm 3.5 mph5.6 kmh 30.34 in1027.4 mb - 0.00 in0.0 mm 0.01 in0.3 mm
05:30 PM 66.1°F18.9°C 49.0°F9.4°C 54% 2.3 mph ESE3.7 kmh ESE 4.6 mph7.4 kmh 30.34 in1027.4 mb - 0.00 in0.0 mm 0.01 in0.3 mm
05:40 PM 65.6°F18.7°C 48.5°F9.2°C 54% Calm Calm -- 30.34 in1027.4 mb - 0.00 in0.0 mm 0.01 in0.3 mm
05:50 PM 65.3°F18.5°C 49.2°F9.6°C 56% Calm Calm -- 30.34 in1027.4 mb - 0.00 in0.0 mm 0.01 in0.3 mm
06:00 PM 65.1°F18.4°C 49.5°F9.7°C 57% Calm Calm 4.6 mph7.4 kmh 30.34 in1027.4 mb - 0.00 in0.0 mm 0.01 in0.3 mm
06:10 PM 64.8°F18.2°C 49.6°F9.8°C 58% Calm Calm -- 30.34 in1027.4 mb - 0.00 in0.0 mm 0.01 in0.3 mm
06:20 PM 64.3°F17.9°C 49.7°F9.8°C 59% 4.6 mph E7.4 kmh E 11.5 mph18.5 kmh 30.35 in1027.8 mb - 0.00 in0.0 mm 0.01 in0.3 mm
06:30 PM 63.9°F17.7°C 49.7°F9.8°C 60% Calm Calm 4.6 mph7.4 kmh 30.35 in1027.8 mb - 0.00 in0.0 mm 0.01 in0.3 mm
06:40 PM 63.5°F17.5°C 49.4°F9.7°C 60% Calm Calm -- 30.35 in1027.8 mb - 0.00 in0.0 mm 0.01 in0.3 mm
06:50 PM 63.0°F17.2°C 49.4°F9.7°C 61% Calm Calm -- 30.35 in1027.8 mb - 0.00 in0.0 mm 0.01 in0.3 mm
07:00 PM 62.6°F17.0°C 49.4°F9.7°C 62% Calm Calm 5.8 mph9.3 kmh 30.35 in1027.8 mb - 0.00 in0.0 mm 0.01 in0.3 mm
07:10 PM 62.2°F16.8°C 49.9°F9.9°C 64% Calm Calm -- 30.35 in1027.8 mb - 0.00 in0.0 mm 0.01 in0.3 mm
07:20 PM 61.8°F16.6°C 49.5°F9.7°C 64% Calm Calm -- 30.35 in1027.8 mb - 0.00 in0.0 mm 0.01 in0.3 mm
07:30 PM 61.5°F16.4°C 49.6°F9.8°C 65% Calm Calm -- 30.36 in1028.1 mb - 0.00 in0.0 mm 0.01 in0.3 mm
07:40 PM 61.2°F16.2°C 49.3°F9.6°C 65% Calm Calm -- 30.36 in1028.1 mb - 0.00 in0.0 mm 0.01 in0.3 mm
07:50 PM 60.9°F16.1°C 49.5°F9.7°C 66% Calm Calm -- 30.36 in1028.1 mb - 0.00 in0.0 mm 0.01 in0.3 mm
08:00 PM 60.7°F15.9°C 49.7°F9.8°C 67% Calm Calm -- 30.36 in1028.1 mb - 0.00 in0.0 mm 0.01 in0.3 mm
08:10 PM 60.6°F15.9°C 50.0°F10.0°C 68% Calm Calm -- 30.37 in1028.4 mb - 0.00 in0.0 mm 0.01 in0.3 mm
08:20 PM 60.6°F15.9°C 50.4°F10.2°C 69% Calm Calm -- 30.37 in1028.4 mb - 0.00 in0.0 mm 0.01 in0.3 mm
08:30 PM 60.8°F16.0°C 50.9°F10.5°C 70% Calm Calm -- 30.37 in1028.4 mb - 0.00 in0.0 mm 0.01 in0.3 mm
08:40 PM 60.9°F16.1°C 51.0°F10.6°C 70% Calm Calm -- 30.37 in1028.4 mb - 0.00 in0.0 mm 0.01 in0.3 mm
08:50 PM 61.0°F16.1°C 51.5°F10.8°C 71% Calm Calm -- 30.37 in1028.4 mb - 0.00 in0.0 mm 0.01 in0.3 mm
09:00 PM 61.1°F16.2°C 52.0°F11.1°C 72% Calm Calm -- 30.37 in1028.4 mb - 0.00 in0.0 mm 0.01 in0.3 mm
09:10 PM 61.1°F16.2°C 52.0°F11.1°C 72% Calm Calm -- 30.37 in1028.4 mb - 0.00 in0.0 mm 0.01 in0.3 mm
09:20 PM 60.9°F16.1°C 51.5°F10.8°C 71% 1.2 mph ESE1.9 kmh ESE 9.2 mph14.8 kmh 30.37 in1028.4 mb - 0.00 in0.0 mm 0.01 in0.3 mm
09:30 PM 60.7°F15.9°C 50.9°F10.5°C 70% Calm Calm -- 30.36 in1028.1 mb - 0.00 in0.0 mm 0.01 in0.3 mm
09:40 PM 60.5°F15.8°C 50.6°F10.3°C 70% Calm Calm -- 30.37 in1028.4 mb - 0.00 in0.0 mm 0.01 in0.3 mm
09:50 PM 60.2°F15.7°C 50.4°F10.2°C 70% Calm Calm -- 30.36 in1028.1 mb - 0.00 in0.0 mm 0.01 in0.3 mm
10:00 PM 59.8°F15.4°C 50.0°F10.0°C 70% Calm Calm -- 30.36 in1028.1 mb - 0.00 in0.0 mm 0.01 in0.3 mm
10:10 PM 59.5°F15.3°C 49.7°F9.8°C 70% Calm Calm -- 30.36 in1028.1 mb - 0.00 in0.0 mm 0.01 in0.3 mm
10:20 PM 59.1°F15.1°C 49.3°F9.6°C 70% Calm Calm -- 30.36 in1028.1 mb - 0.00 in0.0 mm 0.01 in0.3 mm
10:30 PM 58.6°F14.8°C 48.5°F9.2°C 69% Calm Calm -- 30.36 in1028.1 mb - 0.00 in0.0 mm 0.01 in0.3 mm
10:40 PM 58.1°F14.5°C 48.0°F8.9°C 69% Calm Calm -- 30.36 in1028.1 mb - 0.00 in0.0 mm 0.01 in0.3 mm
10:50 PM 57.6°F14.2°C 47.5°F8.6°C 69% Calm Calm -- 30.36 in1028.1 mb - 0.00 in0.0 mm 0.01 in0.3 mm
11:00 PM 57.2°F14.0°C 47.5°F8.6°C 70% Calm Calm -- 30.36 in1028.1 mb - 0.00 in0.0 mm 0.01 in0.3 mm
11:10 PM 56.7°F13.7°C 47.4°F8.6°C 71% Calm Calm -- 30.36 in1028.1 mb - 0.00 in0.0 mm 0.01 in0.3 mm
11:20 PM 56.3°F13.5°C 47.4°F8.6°C 72% Calm Calm -- 30.35 in1027.8 mb - 0.00 in0.0 mm 0.01 in0.3 mm
11:30 PM 56.1°F13.4°C 47.5°F8.6°C 73% Calm Calm -- 30.35 in1027.8 mb - 0.00 in0.0 mm 0.01 in0.3 mm
11:40 PM 55.9°F13.3°C 47.7°F8.7°C 74% Calm Calm -- 30.36 in1028.1 mb - 0.00 in0.0 mm 0.01 in0.3 mm
11:50 PM 55.9°F13.3°C 47.7°F8.7°C 74% Calm Calm -- 30.35 in1027.8 mb - 0.00 in0.0 mm 0.01 in0.3 mm